Mestre Lazaro — CUEP5 — position and weather

sailwx.info

Track history (hours):
 
Tides and Currents Weather Stations Pressure Air Temp Water Temp Dewpoint Dewpoint Depression Visibility Wind Speed Wind Dir Waves Ship Positions

Mestre Lazaro

Last reported at 2018-Jun-15 13:53 UTC. Time now 2018-Jun-18 09:37 UTC.
Position N 39°13' W 009°27'.

Length 22 m.

Type: Fishing. MMSI: 263405850.

Date/timePositionNaut miles runAvg speedWind from/ knotsBaromVisibWave heightAir tempDewpointWater temp
2018-Jun-15 13:53N 39°13' W 009°27'0 0.0
2018-Jun-14 22:17N 39°12' W 009°27'310.1
2018-Jun-14 22:00N 39°10' W 009°28'0 0.3
2018-Jun-14 21:29N 39°10' W 009°28'0 0.4
2018-Jun-14 21:00N 39°10' W 009°28'0 0.5
2018-Jun-14 20:30N 39°10' W 009°28'0 0.6
2018-Jun-14 19:57N 39°10' W 009°28'3 5.5
2018-Jun-14 19:29N 39°13' W 009°29'2 4.0
2018-Jun-14 18:54N 39°11' W 009°26'1 2.8
2018-Jun-14 18:30N 39°12' W 009°27'0 0.1
2018-Jun-14 17:34N 39°12' W 009°27'0 2.7
2018-Jun-14 17:30N 39°12' W 009°27'2 2.6
2018-Jun-14 16:40N 39°12' W 009°24'310.1
2018-Jun-14 16:25N 39°13' W 009°27'1 1.5
2018-Jun-14 16:00N 39°13' W 009°28'1 1.0
2018-Jun-14 15:30N 39°13' W 009°28'0 0.4
2018-Jun-14 14:53N 39°13' W 009°28'1 2.2
2018-Jun-14 14:30N 39°14' W 009°28'2 2.6
2018-Jun-14 13:46N 39°12' W 009°26'51 6.1
2018-Jun-14 05:19N 38°22' W 009°11'3 9.3
2018-Jun-14 05:00N 38°20' W 009°08'5 9.1
2018-Jun-14 04:29N 38°18' W 009°03'4 9.3
2018-Jun-14 04:01N 38°15' W 008°59'5 9.3
2018-Jun-14 03:30N 38°12' W 008°55'5 9.4
2018-Jun-14 03:01N 38°08' W 008°52'3 6.6
2018-Jun-14 02:31N 38°05' W 008°50'0 0.1
2018-Jun-14 02:00N 38°05' W 008°50'0 0.2
2018-Jun-14 01:30N 38°05' W 008°50'4 7.9
2018-Jun-14 01:01N 38°09' W 008°50'510.6
2018-Jun-14 00:31N 38°14' W 008°50'4 7.4
2018-Jun-14 00:01N 38°18' W 008°52'4 7.9
2018-Jun-13 23:30N 38°20' W 008°56'4 7.8
2018-Jun-13 23:01N 38°23' W 008°59'4 7.5
2018-Jun-13 22:30N 38°24' W 009°04'3 5.8
2018-Jun-13 21:59N 38°26' W 009°07'0 0.0
2018-Jun-13 21:30N 38°26' W 009°07'0 0.0
2018-Jun-13 21:00N 38°26' W 009°07'0 0.0
2018-Jun-13 20:30N 38°26' W 009°07'0 0.0
2018-Jun-13 20:01N 38°26' W 009°07'0 0.0
2018-Jun-13 19:30N 38°26' W 009°07'0 0.0
2018-Jun-13 19:00N 38°26' W 009°07'0 0.0
2018-Jun-13 18:31N 38°26' W 009°07'0 0.0
2018-Jun-13 18:01N 38°26' W 009°07'0 0.0
2018-Jun-13 17:30N 38°26' W 009°07'0 0.0
2018-Jun-13 17:00N 38°26' W 009°07'0 0.1
2018-Jun-13 16:30N 38°26' W 009°07'0 0.0
2018-Jun-13 16:00N 38°26' W 009°07'0 0.0
2018-Jun-13 15:30N 38°26' W 009°07'0 0.4
2018-Jun-13 15:00N 38°26' W 009°06'4 8.7
2018-Jun-13 14:30N 38°25' W 009°11'21 8.3
2018-Jun-13 11:55N 38°41' W 009°28'410.0
2018-Jun-13 11:30N 38°39' W 009°24'5 9.9
2018-Jun-13 11:00N 38°36' W 009°19'5 9.8
2018-Jun-13 10:30N 38°33' W 009°14'5 9.2
2018-Jun-13 10:00N 38°29' W 009°14'9 8.3
2018-Jun-13 08:58N 38°22' W 009°07'5 9.7
2018-Jun-13 08:30N 38°21' W 009°01'5 9.8
2018-Jun-13 08:00N 38°19' W 008°56'5 9.6
2018-Jun-13 07:29N 38°17' W 008°50'1 2.4
2018-Jun-13 07:00N 38°16' W 008°49'0 0.2
2018-Jun-13 06:27N 38°16' W 008°49'1 2.6
2018-Jun-13 05:58N 38°15' W 008°49'0 0.7
2018-Jun-13 05:30N 38°15' W 008°49'0 0.6
2018-Jun-13 04:56N 38°15' W 008°49'4 6.8
2018-Jun-13 04:25N 38°11' W 008°48'3 7.8
2018-Jun-13 04:00N 38°15' W 008°48'2 3.9
2018-Jun-13 03:30N 38°13' W 008°49'3 6.6
2018-Jun-13 03:00N 38°10' W 008°49'2 3.0
2018-Jun-13 02:30N 38°12' W 008°48'1 1.9
2018-Jun-13 02:00N 38°13' W 008°48'5 9.2
2018-Jun-13 01:30N 38°17' W 008°50'4 4.8
2018-Jun-13 00:39N 38°13' W 008°50'2 9.4
2018-Jun-13 00:29N 38°11' W 008°50'4 9.4
2018-Jun-13 00:00N 38°07' W 008°51'5 9.3
2018-Jun-12 23:30N 38°02' W 008°53'5 9.0
2018-Jun-12 23:00N 37°58' W 008°54'2 3.0
2018-Jun-12 22:30N 37°57' W 008°52'0 0.0
2018-Jun-12 22:00N 37°57' W 008°52'0 0.0
2018-Jun-12 21:30N 37°57' W 008°52'0 0.0
2018-Jun-12 21:00N 37°57' W 008°52'0 0.0
2018-Jun-12 20:30N 37°57' W 008°52'0 0.0
2018-Jun-12 20:00N 37°57' W 008°52'0 0.0
2018-Jun-12 19:30N 37°57' W 008°52'0 0.0
2018-Jun-12 19:00N 37°57' W 008°52'0 0.0
2018-Jun-12 18:30N 37°57' W 008°52'0 0.0
2018-Jun-12 18:00N 37°57' W 008°52'0 0.0
2018-Jun-12 17:30N 37°57' W 008°52'0 0.0
2018-Jun-12 17:00N 37°57' W 008°52'0 0.0
2018-Jun-12 16:30N 37°57' W 008°52'0 0.0
2018-Jun-12 16:00N 37°57' W 008°52'0 0.0
2018-Jun-12 15:30N 37°57' W 008°52'0 0.0
2018-Jun-12 15:00N 37°57' W 008°52'0 0.0
2018-Jun-12 14:30N 37°57' W 008°52'0 0.0
2018-Jun-12 14:00N 37°57' W 008°52'0 0.0
2018-Jun-12 13:30N 37°57' W 008°52'0 0.0
2018-Jun-12 13:00N 37°57' W 008°52'0 0.0
2018-Jun-12 12:30N 37°57' W 008°52'0 0.0
2018-Jun-12 12:00N 37°57' W 008°52'0 0.0
2018-Jun-12 11:30N 37°57' W 008°52'0 0.0
2018-Jun-12 11:00N 37°57' W 008°52'0 0.1
2018-Jun-12 10:30N 37°57' W 008°52'0 0.2
2018-Jun-12 09:59N 37°57' W 008°52'0 0.0
2018-Jun-12 09:30N 37°57' W 008°52'0 0.0
2018-Jun-12 09:00N 37°57' W 008°52'0 0.6
2018-Jun-12 08:30N 37°57' W 008°52'3 6.3
2018-Jun-12 08:00N 37°60' W 008°53'510.7
2018-Jun-12 07:30N 38°05' W 008°52'510.6
2018-Jun-12 07:00N 38°10' W 008°51'510.7
2018-Jun-12 06:30N 38°16' W 008°50'2 2.5
2018-Jun-12 05:46N 38°18' W 008°50'0 0.1
2018-Jun-12 05:30N 38°18' W 008°50'0 0.2
2018-Jun-12 05:00N 38°18' W 008°50'1 2.0
2018-Jun-12 04:28N 38°17' W 008°49'510.1
2018-Jun-12 03:59N 38°12' W 008°48'4 8.7
2018-Jun-12 03:30N 38°08' W 008°48'0 0.3
2018-Jun-12 03:00N 38°08' W 008°48'0 0.1
2018-Jun-12 02:30N 38°08' W 008°48'2 3.2
2018-Jun-12 02:00N 38°06' W 008°49'3 5.6
2018-Jun-12 01:30N 38°04' W 008°52'4 7.2
2018-Jun-12 01:00N 38°01' W 008°52'5 9.2
2018-Jun-12 00:30N 37°56' W 008°54'1 2.5
2018-Jun-12 00:00N 37°57' W 008°52'0 0.0
2018-Jun-11 23:30N 37°57' W 008°52'0 0.0
2018-Jun-11 23:00N 37°57' W 008°52'0 0.0
2018-Jun-11 22:30N 37°57' W 008°52'0 0.0
2018-Jun-11 22:00N 37°57' W 008°52'0 0.0
2018-Jun-11 21:30N 37°57' W 008°52'0 0.0
2018-Jun-11 21:00N 37°57' W 008°52'0 0.0
2018-Jun-11 20:30N 37°57' W 008°52'0 0.0
2018-Jun-11 20:00N 37°57' W 008°52'0 0.0
2018-Jun-11 19:30N 37°57' W 008°52'0 0.0
2018-Jun-11 19:00N 37°57' W 008°52'0 0.0
2018-Jun-11 18:30N 37°57' W 008°52'0 0.0
2018-Jun-11 18:00N 37°57' W 008°52'0 0.0
2018-Jun-11 17:30N 37°57' W 008°52'0 0.0
2018-Jun-11 17:00N 37°57' W 008°52'0 0.0
2018-Jun-11 16:30N 37°57' W 008°52'0 0.0
2018-Jun-11 15:59N 37°57' W 008°52'0 0.0
2018-Jun-11 15:30N 37°57' W 008°52'0 0.0
2018-Jun-11 15:00N 37°57' W 008°52'0 0.0
2018-Jun-11 14:30N 37°57' W 008°52'0 0.0
2018-Jun-11 13:59N 37°57' W 008°52'0 0.0
2018-Jun-11 13:30N 37°57' W 008°52'0 0.0
2018-Jun-11 13:00N 37°57' W 008°52'0 0.0
2018-Jun-11 12:30N 37°57' W 008°52'0 0.0
2018-Jun-11 12:00N 37°57' W 008°52'0 0.0
2018-Jun-11 11:30N 37°57' W 008°52'0 0.0
2018-Jun-11 11:00N 37°57' W 008°52'0 0.0
2018-Jun-11 10:30N 37°57' W 008°52'0 0.2
2018-Jun-11 10:00N 37°57' W 008°52'0 0.0
2018-Jun-11 09:30N 37°57' W 008°52'0 0.0
2018-Jun-11 09:00N 37°57' W 008°52'0 0.0
2018-Jun-11 08:30N 37°57' W 008°52'0 0.0
2018-Jun-11 08:00N 37°57' W 008°52'3 5.8
2018-Jun-11 07:30N 37°54' W 008°52'510.0
2018-Jun-11 07:00N 37°49' W 008°51'5 9.9
2018-Jun-11 06:30N 37°44' W 008°50'4 8.7
2018-Jun-11 06:00N 37°40' W 008°50'0 0.6
2018-Jun-11 05:30N 37°40' W 008°50'0 0.3
2018-Jun-11 05:00N 37°40' W 008°50'0 0.2
2018-Jun-11 04:30N 37°41' W 008°50'1 2.1
2018-Jun-11 04:00N 37°42' W 008°50'0 0.7
2018-Jun-11 03:30N 37°41' W 008°50'1 1.7
2018-Jun-11 03:00N 37°40' W 008°50'3 5.3
2018-Jun-11 02:30N 37°38' W 008°50'4 7.3
2018-Jun-11 01:58N 37°34' W 008°49'5 2.0
2018-Jun-10 23:17N 37°39' W 008°50'3 9.4
2018-Jun-10 23:00N 37°42' W 008°51'510.0
2018-Jun-10 22:29N 37°47' W 008°50'5 9.8
2018-Jun-10 22:00N 37°52' W 008°50'3 6.1
2018-Jun-10 21:30N 37°54' W 008°49'0 0.1
2018-Jun-10 21:00N 37°54' W 008°49'0 0.2
2018-Jun-10 20:30N 37°55' W 008°49'4 7.2
2018-Jun-10 20:00N 37°56' W 008°53'3 5.3
2018-Jun-10 19:30N 37°59' W 008°53'4 7.1
2018-Jun-10 19:00N 38°02' W 008°52'4 8.9
2018-Jun-10 18:30N 38°03' W 008°58'5 9.1
2018-Jun-10 18:00N 38°07' W 009°01'5 9.9
2018-Jun-10 17:30N 38°11' W 009°04'510.2
2018-Jun-10 17:00N 38°15' W 009°07'510.0
2018-Jun-10 16:30N 38°19' W 009°11'5 9.8
2018-Jun-10 16:00N 38°24' W 009°14'5 9.8
2018-Jun-10 15:29N 38°28' W 009°17'5 9.7
2018-Jun-10 15:00N 38°32' W 009°21'510.0
2018-Jun-10 14:30N 38°36' W 009°24'158 5.6
2018-Jun-09 10:02N 41°11' W 008°42'0 0.0
2018-Jun-09 10:01N 41°11' W 008°42'0 0.0
2018-Jun-08 11:46N 41°11' W 008°42'0 0.0
2018-Jun-08 11:31N 41°11' W 008°42'0 0.0
2018-Jun-08 11:00N 41°11' W 008°42'0 0.0
2018-Jun-08 10:31N 41°11' W 008°42'0 0.0
2018-Jun-08 10:00N 41°11' W 008°42'0 0.0
2018-Jun-08 09:31N 41°11' W 008°42'0 0.0
2018-Jun-08 09:00N 41°11' W 008°42'0 0.0
2018-Jun-08 08:26N 41°11' W 008°42'0 0.0
2018-Jun-08 08:01N 41°11' W 008°42'1 1.7
2018-Jun-08 07:30N 41°11' W 008°43'3 0.3
2018-Jun-07 22:20N 41°12' W 008°46'310.1
2018-Jun-07 22:01N 41°10' W 008°42'1 0.0
2018-Jun-07 09:56N 41°11' W 008°42'0 0.0
2018-Jun-07 09:30N 41°11' W 008°42'0 0.0
2018-Jun-07 09:00N 41°11' W 008°42'0 0.0
2018-Jun-07 08:31N 41°11' W 008°42'0 0.0
2018-Jun-07 08:01N 41°11' W 008°42'123 3.5
2018-Jun-05 21:08N 39°12' W 009°25'0 0.6
2018-Jun-05 20:57N 39°12' W 009°25'1 2.4
2018-Jun-05 20:30N 39°13' W 009°27'1 2.3
2018-Jun-05 20:00N 39°13' W 009°28'1 1.7
2018-Jun-05 19:26N 39°12' W 009°28'1 2.2
2018-Jun-05 19:01N 39°13' W 009°29'5 9.8
2018-Jun-05 18:31N 39°17' W 009°26'5 1.7
2018-Jun-05 15:23N 39°12' W 009°25'0 0.6
2018-Jun-05 14:52N 39°12' W 009°25'0 0.1
2018-Jun-05 14:31N 39°12' W 009°25'0 0.3
2018-Jun-05 13:53N 39°12' W 009°25'  
Track history (hours):
 
Tides and Currents Weather Stations Pressure Air Temp Water Temp Dewpoint Dewpoint Depression Visibility Wind Speed Wind Dir Waves Ship Positions

Mestre Lazaro

Last reported at 2018-Jun-15 13:53 UTC. Time now 2018-Jun-18 09:37 UTC.
Position N 39°13' W 009°27'.

Length 22 m.

Type: Fishing. MMSI: 263405850.

Date/timePositionNaut miles runAvg speedWind from/ knotsBaromVisibWave heightAir tempDewpointWater temp
2018-Jun-15 13:53N 39°13' W 009°27'0 0.0
2018-Jun-14 22:17N 39°12' W 009°27'310.1
2018-Jun-14 22:00N 39°10' W 009°28'0 0.3
2018-Jun-14 21:29N 39°10' W 009°28'0 0.4
2018-Jun-14 21:00N 39°10' W 009°28'0 0.5
2018-Jun-14 20:30N 39°10' W 009°28'0 0.6
2018-Jun-14 19:57N 39°10' W 009°28'3 5.5
2018-Jun-14 19:29N 39°13' W 009°29'2 4.0
2018-Jun-14 18:54N 39°11' W 009°26'1 2.8
2018-Jun-14 18:30N 39°12' W 009°27'0 0.1
2018-Jun-14 17:34N 39°12' W 009°27'0 2.7
2018-Jun-14 17:30N 39°12' W 009°27'2 2.6
2018-Jun-14 16:40N 39°12' W 009°24'310.1
2018-Jun-14 16:25N 39°13' W 009°27'1 1.5
2018-Jun-14 16:00N 39°13' W 009°28'1 1.0
2018-Jun-14 15:30N 39°13' W 009°28'0 0.4
2018-Jun-14 14:53N 39°13' W 009°28'1 2.2
2018-Jun-14 14:30N 39°14' W 009°28'2 2.6
2018-Jun-14 13:46N 39°12' W 009°26'51 6.1
2018-Jun-14 05:19N 38°22' W 009°11'3 9.3
2018-Jun-14 05:00N 38°20' W 009°08'5 9.1
2018-Jun-14 04:29N 38°18' W 009°03'4 9.3
2018-Jun-14 04:01N 38°15' W 008°59'5 9.3
2018-Jun-14 03:30N 38°12' W 008°55'5 9.4
2018-Jun-14 03:01N 38°08' W 008°52'3 6.6
2018-Jun-14 02:31N 38°05' W 008°50'0 0.1
2018-Jun-14 02:00N 38°05' W 008°50'0 0.2
2018-Jun-14 01:30N 38°05' W 008°50'4 7.9
2018-Jun-14 01:01N 38°09' W 008°50'510.6
2018-Jun-14 00:31N 38°14' W 008°50'4 7.4
2018-Jun-14 00:01N 38°18' W 008°52'4 7.9
2018-Jun-13 23:30N 38°20' W 008°56'4 7.8
2018-Jun-13 23:01N 38°23' W 008°59'4 7.5
2018-Jun-13 22:30N 38°24' W 009°04'3 5.8
2018-Jun-13 21:59N 38°26' W 009°07'0 0.0
2018-Jun-13 21:30N 38°26' W 009°07'0 0.0
2018-Jun-13 21:00N 38°26' W 009°07'0 0.0
2018-Jun-13 20:30N 38°26' W 009°07'0 0.0
2018-Jun-13 20:01N 38°26' W 009°07'0 0.0
2018-Jun-13 19:30N 38°26' W 009°07'0 0.0
2018-Jun-13 19:00N 38°26' W 009°07'0 0.0
2018-Jun-13 18:31N 38°26' W 009°07'0 0.0
2018-Jun-13 18:01N 38°26' W 009°07'0 0.0
2018-Jun-13 17:30N 38°26' W 009°07'0 0.0
2018-Jun-13 17:00N 38°26' W 009°07'0 0.1
2018-Jun-13 16:30N 38°26' W 009°07'0 0.0
2018-Jun-13 16:00N 38°26' W 009°07'0 0.0
2018-Jun-13 15:30N 38°26' W 009°07'0 0.4
2018-Jun-13 15:00N 38°26' W 009°06'4 8.7
2018-Jun-13 14:30N 38°25' W 009°11'21 8.3
2018-Jun-13 11:55N 38°41' W 009°28'410.0
2018-Jun-13 11:30N 38°39' W 009°24'5 9.9
2018-Jun-13 11:00N 38°36' W 009°19'5 9.8
2018-Jun-13 10:30N 38°33' W 009°14'5 9.2
2018-Jun-13 10:00N 38°29' W 009°14'9 8.3
2018-Jun-13 08:58N 38°22' W 009°07'5 9.7
2018-Jun-13 08:30N 38°21' W 009°01'5 9.8
2018-Jun-13 08:00N 38°19' W 008°56'5 9.6
2018-Jun-13 07:29N 38°17' W 008°50'1 2.4
2018-Jun-13 07:00N 38°16' W 008°49'0 0.2
2018-Jun-13 06:27N 38°16' W 008°49'1 2.6
2018-Jun-13 05:58N 38°15' W 008°49'0 0.7
2018-Jun-13 05:30N 38°15' W 008°49'0 0.6
2018-Jun-13 04:56N 38°15' W 008°49'4 6.8
2018-Jun-13 04:25N 38°11' W 008°48'3 7.8
2018-Jun-13 04:00N 38°15' W 008°48'2 3.9
2018-Jun-13 03:30N 38°13' W 008°49'3 6.6
2018-Jun-13 03:00N 38°10' W 008°49'2 3.0
2018-Jun-13 02:30N 38°12' W 008°48'1 1.9
2018-Jun-13 02:00N 38°13' W 008°48'5 9.2
2018-Jun-13 01:30N 38°17' W 008°50'4 4.8
2018-Jun-13 00:39N 38°13' W 008°50'2 9.4
2018-Jun-13 00:29N 38°11' W 008°50'4 9.4
2018-Jun-13 00:00N 38°07' W 008°51'5 9.3
2018-Jun-12 23:30N 38°02' W 008°53'5 9.0
2018-Jun-12 23:00N 37°58' W 008°54'2 3.0
2018-Jun-12 22:30N 37°57' W 008°52'0 0.0
2018-Jun-12 22:00N 37°57' W 008°52'0 0.0
2018-Jun-12 21:30N 37°57' W 008°52'0 0.0
2018-Jun-12 21:00N 37°57' W 008°52'0 0.0
2018-Jun-12 20:30N 37°57' W 008°52'0 0.0
2018-Jun-12 20:00N 37°57' W 008°52'0 0.0
2018-Jun-12 19:30N 37°57' W 008°52'0 0.0
2018-Jun-12 19:00N 37°57' W 008°52'0 0.0
2018-Jun-12 18:30N 37°57' W 008°52'0 0.0
2018-Jun-12 18:00N 37°57' W 008°52'0 0.0
2018-Jun-12 17:30N 37°57' W 008°52'0 0.0
2018-Jun-12 17:00N 37°57' W 008°52'0 0.0
2018-Jun-12 16:30N 37°57' W 008°52'0 0.0
2018-Jun-12 16:00N 37°57' W 008°52'0 0.0
2018-Jun-12 15:30N 37°57' W 008°52'0 0.0
2018-Jun-12 15:00N 37°57' W 008°52'0 0.0
2018-Jun-12 14:30N 37°57' W 008°52'0 0.0
2018-Jun-12 14:00N 37°57' W 008°52'0 0.0
2018-Jun-12 13:30N 37°57' W 008°52'0 0.0
2018-Jun-12 13:00N 37°57' W 008°52'0 0.0
2018-Jun-12 12:30N 37°57' W 008°52'0 0.0
2018-Jun-12 12:00N 37°57' W 008°52'0 0.0
2018-Jun-12 11:30N 37°57' W 008°52'0 0.0
2018-Jun-12 11:00N 37°57' W 008°52'0 0.1
2018-Jun-12 10:30N 37°57' W 008°52'0 0.2
2018-Jun-12 09:59N 37°57' W 008°52'0 0.0
2018-Jun-12 09:30N 37°57' W 008°52'0 0.0
2018-Jun-12 09:00N 37°57' W 008°52'0 0.6
2018-Jun-12 08:30N 37°57' W 008°52'3 6.3
2018-Jun-12 08:00N 37°60' W 008°53'510.7
2018-Jun-12 07:30N 38°05' W 008°52'510.6
2018-Jun-12 07:00N 38°10' W 008°51'510.7
2018-Jun-12 06:30N 38°16' W 008°50'2 2.5
2018-Jun-12 05:46N 38°18' W 008°50'0 0.1
2018-Jun-12 05:30N 38°18' W 008°50'0 0.2
2018-Jun-12 05:00N 38°18' W 008°50'1 2.0
2018-Jun-12 04:28N 38°17' W 008°49'510.1
2018-Jun-12 03:59N 38°12' W 008°48'4 8.7
2018-Jun-12 03:30N 38°08' W 008°48'0 0.3
2018-Jun-12 03:00N 38°08' W 008°48'0 0.1
2018-Jun-12 02:30N 38°08' W 008°48'2 3.2
2018-Jun-12 02:00N 38°06' W 008°49'3 5.6
2018-Jun-12 01:30N 38°04' W 008°52'4 7.2
2018-Jun-12 01:00N 38°01' W 008°52'5 9.2
2018-Jun-12 00:30N 37°56' W 008°54'1 2.5
2018-Jun-12 00:00N 37°57' W 008°52'0 0.0
2018-Jun-11 23:30N 37°57' W 008°52'0 0.0
2018-Jun-11 23:00N 37°57' W 008°52'0 0.0
2018-Jun-11 22:30N 37°57' W 008°52'0 0.0
2018-Jun-11 22:00N 37°57' W 008°52'0 0.0
2018-Jun-11 21:30N 37°57' W 008°52'0 0.0
2018-Jun-11 21:00N 37°57' W 008°52'0 0.0
2018-Jun-11 20:30N 37°57' W 008°52'0 0.0
2018-Jun-11 20:00N 37°57' W 008°52'0 0.0
2018-Jun-11 19:30N 37°57' W 008°52'0 0.0
2018-Jun-11 19:00N 37°57' W 008°52'0 0.0
2018-Jun-11 18:30N 37°57' W 008°52'0 0.0
2018-Jun-11 18:00N 37°57' W 008°52'0 0.0
2018-Jun-11 17:30N 37°57' W 008°52'0 0.0
2018-Jun-11 17:00N 37°57' W 008°52'0 0.0
2018-Jun-11 16:30N 37°57' W 008°52'0 0.0
2018-Jun-11 15:59N 37°57' W 008°52'0 0.0
2018-Jun-11 15:30N 37°57' W 008°52'0 0.0
2018-Jun-11 15:00N 37°57' W 008°52'0 0.0
2018-Jun-11 14:30N 37°57' W 008°52'0 0.0
2018-Jun-11 13:59N 37°57' W 008°52'0 0.0
2018-Jun-11 13:30N 37°57' W 008°52'0 0.0
2018-Jun-11 13:00N 37°57' W 008°52'0 0.0
2018-Jun-11 12:30N 37°57' W 008°52'0 0.0
2018-Jun-11 12:00N 37°57' W 008°52'0 0.0
2018-Jun-11 11:30N 37°57' W 008°52'0 0.0
2018-Jun-11 11:00N 37°57' W 008°52'0 0.0
2018-Jun-11 10:30N 37°57' W 008°52'0 0.2
2018-Jun-11 10:00N 37°57' W 008°52'0 0.0
2018-Jun-11 09:30N 37°57' W 008°52'0 0.0
2018-Jun-11 09:00N 37°57' W 008°52'0 0.0
2018-Jun-11 08:30N 37°57' W 008°52'0 0.0
2018-Jun-11 08:00N 37°57' W 008°52'3 5.8
2018-Jun-11 07:30N 37°54' W 008°52'510.0
2018-Jun-11 07:00N 37°49' W 008°51'5 9.9
2018-Jun-11 06:30N 37°44' W 008°50'4 8.7
2018-Jun-11 06:00N 37°40' W 008°50'0 0.6
2018-Jun-11 05:30N 37°40' W 008°50'0 0.3
2018-Jun-11 05:00N 37°40' W 008°50'0 0.2
2018-Jun-11 04:30N 37°41' W 008°50'1 2.1
2018-Jun-11 04:00N 37°42' W 008°50'0 0.7
2018-Jun-11 03:30N 37°41' W 008°50'1 1.7
2018-Jun-11 03:00N 37°40' W 008°50'3 5.3
2018-Jun-11 02:30N 37°38' W 008°50'4 7.3
2018-Jun-11 01:58N 37°34' W 008°49'5 2.0
2018-Jun-10 23:17N 37°39' W 008°50'3 9.4
2018-Jun-10 23:00N 37°42' W 008°51'510.0
2018-Jun-10 22:29N 37°47' W 008°50'5 9.8
2018-Jun-10 22:00N 37°52' W 008°50'3 6.1
2018-Jun-10 21:30N 37°54' W 008°49'0 0.1
2018-Jun-10 21:00N 37°54' W 008°49'0 0.2
2018-Jun-10 20:30N 37°55' W 008°49'4 7.2
2018-Jun-10 20:00N 37°56' W 008°53'3 5.3
2018-Jun-10 19:30N 37°59' W 008°53'4 7.1
2018-Jun-10 19:00N 38°02' W 008°52'4 8.9
2018-Jun-10 18:30N 38°03' W 008°58'5 9.1
2018-Jun-10 18:00N 38°07' W 009°01'5 9.9
2018-Jun-10 17:30N 38°11' W 009°04'510.2
2018-Jun-10 17:00N 38°15' W 009°07'510.0
2018-Jun-10 16:30N 38°19' W 009°11'5 9.8
2018-Jun-10 16:00N 38°24' W 009°14'5 9.8
2018-Jun-10 15:29N 38°28' W 009°17'5 9.7
2018-Jun-10 15:00N 38°32' W 009°21'510.0
2018-Jun-10 14:30N 38°36' W 009°24'158 5.6
2018-Jun-09 10:02N 41°11' W 008°42'0 0.0
2018-Jun-09 10:01N 41°11' W 008°42'0 0.0
2018-Jun-08 11:46N 41°11' W 008°42'0 0.0
2018-Jun-08 11:31N 41°11' W 008°42'0 0.0
2018-Jun-08 11:00N 41°11' W 008°42'0 0.0
2018-Jun-08 10:31N 41°11' W 008°42'0 0.0
2018-Jun-08 10:00N 41°11' W 008°42'0 0.0
2018-Jun-08 09:31N 41°11' W 008°42'0 0.0
2018-Jun-08 09:00N 41°11' W 008°42'0 0.0
2018-Jun-08 08:26N 41°11' W 008°42'0 0.0
2018-Jun-08 08:01N 41°11' W 008°42'1 1.7
2018-Jun-08 07:30N 41°11' W 008°43'3 0.3
2018-Jun-07 22:20N 41°12' W 008°46'310.1
2018-Jun-07 22:01N 41°10' W 008°42'1 0.0
2018-Jun-07 09:56N 41°11' W 008°42'0 0.0
2018-Jun-07 09:30N 41°11' W 008°42'0 0.0
2018-Jun-07 09:00N 41°11' W 008°42'0 0.0
2018-Jun-07 08:31N 41°11' W 008°42'0 0.0
2018-Jun-07 08:01N 41°11' W 008°42'123 3.5
2018-Jun-05 21:08N 39°12' W 009°25'0 0.6
2018-Jun-05 20:57N 39°12' W 009°25'1 2.4
2018-Jun-05 20:30N 39°13' W 009°27'1 2.3
2018-Jun-05 20:00N 39°13' W 009°28'1 1.7
2018-Jun-05 19:26N 39°12' W 009°28'1 2.2
2018-Jun-05 19:01N 39°13' W 009°29'5 9.8
2018-Jun-05 18:31N 39°17' W 009°26'5 1.7
2018-Jun-05 15:23N 39°12' W 009°25'0 0.6
2018-Jun-05 14:52N 39°12' W 009°25'0 0.1
2018-Jun-05 14:31N 39°12' W 009°25'0 0.3
2018-Jun-05 13:53N 39°12' W 009°25'  

Dump ship's entire track history